sensor_id;sensor_type;location;lat;lon;timestamp;pressure;altitude;pressure_sealevel;temperature;humidity
11810;BME280;5962;41.566;23.734;2023-11-18T00:00:09;94395.94;;;10.14;100.00
11810;BME280;5962;41.566;23.734;2023-11-18T00:02:39;94414.19;;;10.10;100.00
11810;BME280;5962;41.566;23.734;2023-11-18T00:05:09;94420.28;;;10.16;100.00
11810;BME280;5962;41.566;23.734;2023-11-18T00:07:37;94421.34;;;10.20;100.00
11810;BME280;5962;41.566;23.734;2023-11-18T00:10:06;94409.19;;;10.24;100.00
11810;BME280;5962;41.566;23.734;2023-11-18T00:12:36;94405.78;;;10.33;100.00
11810;BME280;5962;41.566;23.734;2023-11-18T00:15:08;94412.91;;;10.32;100.00
11810;BME280;5962;41.566;23.734;2023-11-18T00:17:38;94409.72;;;10.26;100.00
11810;BME280;5962;41.566;23.734;2023-11-18T00:20:07;94408.94;;;10.30;100.00
11810;BME280;5962;41.566;23.734;2023-11-18T00:22:39;94403.91;;;10.29;100.00
11810;BME280;5962;41.566;23.734;2023-11-18T00:25:08;94399.66;;;10.32;100.00
11810;BME280;5962;41.566;23.734;2023-11-18T00:27:38;94406.59;;;10.38;100.00
11810;BME280;5962;41.566;23.734;2023-11-18T00:30:07;94405.25;;;10.31;100.00
11810;BME280;5962;41.566;23.734;2023-11-18T00:32:37;94406.81;;;10.32;100.00
11810;BME280;5962;41.566;23.734;2023-11-18T00:35:06;94414.25;;;10.35;100.00
11810;BME280;5962;41.566;23.734;2023-11-18T00:37:35;94407.91;;;10.36;100.00
11810;BME280;5962;41.566;23.734;2023-11-18T00:40:04;94407.09;;;10.35;100.00
11810;BME280;5962;41.566;23.734;2023-11-18T00:42:33;94389.66;;;10.44;100.00
11810;BME280;5962;41.566;23.734;2023-11-18T00:45:02;94388.56;;;10.45;100.00
11810;BME280;5962;41.566;23.734;2023-11-18T00:47:31;94388.06;;;10.38;100.00
11810;BME280;5962;41.566;23.734;2023-11-18T00:49:59;94376.13;;;10.41;100.00
11810;BME280;5962;41.566;23.734;2023-11-18T00:52:28;94375.84;;;10.32;100.00
11810;BME280;5962;41.566;23.734;2023-11-18T00:54:56;94377.19;;;10.40;100.00
11810;BME280;5962;41.566;23.734;2023-11-18T00:57:25;94375.88;;;10.42;100.00
11810;BME280;5962;41.566;23.734;2023-11-18T00:59:53;94378.25;;;10.44;100.00
11810;BME280;5962;41.566;23.734;2023-11-18T01:02:22;94387.00;;;10.39;100.00
11810;BME280;5962;41.566;23.734;2023-11-18T01:04:50;94397.31;;;10.36;100.00
11810;BME280;5962;41.566;23.734;2023-11-18T01:07:18;94408.94;;;10.25;100.00
11810;BME280;5962;41.566;23.734;2023-11-18T01:09:46;94408.66;;;10.22;100.00
11810;BME280;5962;41.566;23.734;2023-11-18T01:12:16;94401.50;;;10.17;100.00
11810;BME280;5962;41.566;23.734;2023-11-18T01:14:44;94384.84;;;10.17;100.00
11810;BME280;5962;41.566;23.734;2023-11-18T01:17:12;94372.38;;;10.17;100.00
11810;BME280;5962;41.566;23.734;2023-11-18T01:19:42;94368.41;;;10.20;100.00
11810;BME280;5962;41.566;23.734;2023-11-18T01:22:10;94373.47;;;10.21;100.00
11810;BME280;5962;41.566;23.734;2023-11-18T01:24:38;94379.81;;;10.25;100.00
11810;BME280;5962;41.566;23.734;2023-11-18T01:27:06;94375.59;;;10.29;100.00
11810;BME280;5962;41.566;23.734;2023-11-18T01:29:36;94375.34;;;10.31;100.00
11810;BME280;5962;41.566;23.734;2023-11-18T01:32:05;94381.69;;;10.30;100.00
11810;BME280;5962;41.566;23.734;2023-11-18T01:34:36;94384.56;;;10.28;100.00
11810;BME280;5962;41.566;23.734;2023-11-18T01:37:07;94383.78;;;10.32;100.00
11810;BME280;5962;41.566;23.734;2023-11-18T01:39:36;94382.72;;;10.33;100.00
11810;BME280;5962;41.566;23.734;2023-11-18T01:42:04;94390.44;;;10.35;100.00
11810;BME280;5962;41.566;23.734;2023-11-18T01:44:32;94377.97;;;10.35;100.00
11810;BME280;5962;41.566;23.734;2023-11-18T01:47:02;94368.19;;;10.36;100.00
11810;BME280;5962;41.566;23.734;2023-11-18T01:49:35;94362.91;;;10.36;100.00
11810;BME280;5962;41.566;23.734;2023-11-18T01:52:08;94365.56;;;10.36;100.00
11810;BME280;5962;41.566;23.734;2023-11-18T01:54:39;94359.97;;;10.37;100.00
11810;BME280;5962;41.566;23.734;2023-11-18T01:57:09;94360.50;;;10.34;100.00
11810;BME280;5962;41.566;23.734;2023-11-18T01:59:37;94361.84;;;10.37;100.00
11810;BME280;5962;41.566;23.734;2023-11-18T02:02:07;94358.66;;;10.40;100.00
11810;BME280;5962;41.566;23.734;2023-11-18T02:04:35;94358.91;;;10.33;100.00
11810;BME280;5962;41.566;23.734;2023-11-18T02:07:03;94354.44;;;10.34;100.00
11810;BME280;5962;41.566;23.734;2023-11-18T02:09:37;94350.19;;;10.33;100.00
11810;BME280;5962;41.566;23.734;2023-11-18T02:12:18;94344.63;;;10.30;100.00
11810;BME280;5962;41.566;23.734;2023-11-18T02:14:48;94350.47;;;10.32;100.00
11810;BME280;5962;41.566;23.734;2023-11-18T02:17:21;94342.78;;;10.30;100.00
11810;BME280;5962;41.566;23.734;2023-11-18T02:19:51;94335.88;;;10.29;100.00
11810;BME280;5962;41.566;23.734;2023-11-18T02:22:20;94339.03;;;10.26;100.00
11810;BME280;5962;41.566;23.734;2023-11-18T02:24:50;94338.28;;;10.26;100.00
11810;BME280;5962;41.566;23.734;2023-11-18T02:27:19;94340.38;;;10.24;100.00
11810;BME280;5962;41.566;23.734;2023-11-18T02:29:48;94330.84;;;10.32;100.00
11810;BME280;5962;41.566;23.734;2023-11-18T02:32:21;94333.22;;;10.29;100.00
11810;BME280;5962;41.566;23.734;2023-11-18T02:34:58;94321.88;;;10.29;100.00
11810;BME280;5962;41.566;23.734;2023-11-18T02:37:29;94330.59;;;10.29;100.00
11810;BME280;5962;41.566;23.734;2023-11-18T02:40:03;94333.50;;;10.32;100.00
11810;BME280;5962;41.566;23.734;2023-11-18T02:42:36;94340.91;;;10.26;100.00
11810;BME280;5962;41.566;23.734;2023-11-18T02:45:07;94359.72;;;10.24;100.00
11810;BME280;5962;41.566;23.734;2023-11-18T02:47:39;94359.41;;;10.21;100.00
11810;BME280;5962;41.566;23.734;2023-11-18T02:50:07;94348.84;;;10.26;100.00
11810;BME280;5962;41.566;23.734;2023-11-18T02:52:37;94348.56;;;10.17;100.00
11810;BME280;5962;41.566;23.734;2023-11-18T02:55:06;94350.69;;;10.15;100.00
11810;BME280;5962;41.566;23.734;2023-11-18T02:57:36;94357.56;;;10.16;100.00
11810;BME280;5962;41.566;23.734;2023-11-18T03:00:05;94352.50;;;10.10;100.00
11810;BME280;5962;41.566;23.734;2023-11-18T03:02:38;94359.16;;;10.17;100.00
11810;BME280;5962;41.566;23.734;2023-11-18T03:05:07;94347.22;;;10.05;100.00
11810;BME280;5962;41.566;23.734;2023-11-18T03:07:38;94334.47;;;9.92;100.00
11810;BME280;5962;41.566;23.734;2023-11-18T03:10:07;94337.56;;;9.79;100.00
11810;BME280;5962;41.566;23.734;2023-11-18T03:12:39;94343.91;;;9.73;100.00
11810;BME280;5962;41.566;23.734;2023-11-18T03:15:08;94344.44;;;9.70;100.00
11810;BME280;5962;41.566;23.734;2023-11-18T03:17:38;94343.59;;;9.64;100.00
11810;BME280;5962;41.566;23.734;2023-11-18T03:20:07;94342.53;;;9.55;100.00
11810;BME280;5962;41.566;23.734;2023-11-18T03:22:36;94344.88;;;9.52;100.00
11810;BME280;5962;41.566;23.734;2023-11-18T03:25:04;94341.19;;;9.58;100.00
11810;BME280;5962;41.566;23.734;2023-11-18T03:27:34;94352.78;;;9.52;100.00
11810;BME280;5962;41.566;23.734;2023-11-18T03:30:04;94355.44;;;9.47;100.00
11810;BME280;5962;41.566;23.734;2023-11-18T03:32:33;94358.53;;;9.39;100.00
11810;BME280;5962;41.566;23.734;2023-11-18T03:35:02;94362.47;;;9.32;100.00
11810;BME280;5962;41.566;23.734;2023-11-18T03:37:31;94354.31;;;9.33;100.00
11810;BME280;5962;41.566;23.734;2023-11-18T03:39:59;94351.38;;;9.30;100.00
11810;BME280;5962;41.566;23.734;2023-11-18T03:42:26;94355.84;;;9.29;100.00
11810;BME280;5962;41.566;23.734;2023-11-18T03:44:55;94362.19;;;9.28;100.00
11810;BME280;5962;41.566;23.734;2023-11-18T03:47:25;94349.25;;;9.27;100.00
11810;BME280;5962;41.566;23.734;2023-11-18T03:49:53;94344.78;;;9.32;100.00
11810;BME280;5962;41.566;23.734;2023-11-18T03:52:21;94350.34;;;9.35;100.00
11810;BME280;5962;41.566;23.734;2023-11-18T03:54:49;94348.75;;;9.30;100.00
11810;BME280;5962;41.566;23.734;2023-11-18T03:57:17;94344.50;;;9.33;100.00
11810;BME280;5962;41.566;23.734;2023-11-18T03:59:45;94358.50;;;9.29;100.00
11810;BME280;5962;41.566;23.734;2023-11-18T04:02:13;94355.06;;;9.29;100.00
11810;BME280;5962;41.566;23.734;2023-11-18T04:04:43;94367.97;;;9.20;100.00
11810;BME280;5962;41.566;23.734;2023-11-18T04:07:11;94370.84;;;9.19;100.00
11810;BME280;5962;41.566;23.734;2023-11-18T04:09:39;94367.69;;;9.22;100.00
11810;BME280;5962;41.566;23.734;2023-11-18T04:12:08;94369.84;;;9.25;100.00
11810;BME280;5962;41.566;23.734;2023-11-18T04:14:36;94358.78;;;9.28;100.00
11810;BME280;5962;41.566;23.734;2023-11-18T04:17:04;94367.47;;;9.23;100.00
11810;BME280;5962;41.566;23.734;2023-11-18T04:19:34;94379.31;;;9.21;100.00
11810;BME280;5962;41.566;23.734;2023-11-18T04:22:03;94378.75;;;9.14;100.00
11810;BME280;5962;41.566;23.734;2023-11-18T04:24:32;94373.19;;;9.10;100.00
11810;BME280;5962;41.566;23.734;2023-11-18T04:27:01;94367.59;;;9.07;100.00
11810;BME280;5962;41.566;23.734;2023-11-18T04:29:30;94370.19;;;8.97;100.00
11810;BME280;5962;41.566;23.734;2023-11-18T04:31:57;94367.59;;;9.02;100.00
11810;BME280;5962;41.566;23.734;2023-11-18T04:34:26;94370.72;;;8.99;100.00
11810;BME280;5962;41.566;23.734;2023-11-18T04:36:54;94366.75;;;8.96;100.00
11810;BME280;5962;41.566;23.734;2023-11-18T04:39:23;94369.91;;;8.93;100.00
11810;BME280;5962;41.566;23.734;2023-11-18T04:41:52;94375.19;;;8.98;100.00
11810;BME280;5962;41.566;23.734;2023-11-18T04:44:20;94376.19;;;8.87;100.00
11810;BME280;5962;41.566;23.734;2023-11-18T04:46:48;94376.44;;;8.86;100.00
11810;BME280;5962;41.566;23.734;2023-11-18T04:49:16;94383.53;;;8.80;100.00
11810;BME280;5962;41.566;23.734;2023-11-18T04:51:44;94382.16;;;8.73;100.00
11810;BME280;5962;41.566;23.734;2023-11-18T04:54:12;94378.13;;;8.65;100.00
11810;BME280;5962;41.566;23.734;2023-11-18T04:56:42;94384.44;;;8.64;100.00
11810;BME280;5962;41.566;23.734;2023-11-18T04:59:10;94378.91;;;8.66;100.00
11810;BME280;5962;41.566;23.734;2023-11-18T05:01:38;94373.31;;;8.57;100.00
11810;BME280;5962;41.566;23.734;2023-11-18T05:04:07;94369.09;;;8.56;100.00
11810;BME280;5962;41.566;23.734;2023-11-18T05:06:36;94383.88;;;8.57;100.00
11810;BME280;5962;41.566;23.734;2023-11-18T05:09:04;94380.38;;;8.52;100.00
11810;BME280;5962;41.566;23.734;2023-11-18T05:11:34;94383.53;;;8.49;100.00
11810;BME280;5962;41.566;23.734;2023-11-18T05:14:04;94394.66;;;8.56;100.00
11810;BME280;5962;41.566;23.734;2023-11-18T05:16:33;94394.09;;;8.49;100.00
11810;BME280;5962;41.566;23.734;2023-11-18T05:19:01;94388.34;;;8.57;100.00
11810;BME280;5962;41.566;23.734;2023-11-18T05:21:29;94387.78;;;8.55;100.00
11810;BME280;5962;41.566;23.734;2023-11-18T05:23:57;94398.63;;;8.53;100.00
11810;BME280;5962;41.566;23.734;2023-11-18T05:26:25;94401.94;;;8.44;100.00
11810;BME280;5962;41.566;23.734;2023-11-18T05:28:54;94410.91;;;8.43;100.00
11810;BME280;5962;41.566;23.734;2023-11-18T05:31:23;94412.50;;;8.44;100.00
11810;BME280;5962;41.566;23.734;2023-11-18T05:33:51;94421.72;;;8.42;100.00
11810;BME280;5962;41.566;23.734;2023-11-18T05:36:22;94428.34;;;8.44;100.00
11810;BME280;5962;41.566;23.734;2023-11-18T05:38:54;94424.38;;;8.42;100.00
11810;BME280;5962;41.566;23.734;2023-11-18T05:41:22;94430.69;;;8.41;100.00
11810;BME280;5962;41.566;23.734;2023-11-18T05:43:54;94433.31;;;8.41;100.00
11810;BME280;5962;41.566;23.734;2023-11-18T05:46:25;94436.25;;;8.44;100.00
11810;BME280;5962;41.566;23.734;2023-11-18T05:48:56;94426.06;;;8.52;100.00
11810;BME280;5962;41.566;23.734;2023-11-18T05:51:26;94433.16;;;8.52;100.00
11810;BME280;5962;41.566;23.734;2023-11-18T05:53:55;94422.59;;;8.52;100.00
11810;BME280;5962;41.566;23.734;2023-11-18T05:56:23;94433.41;;;8.50;100.00
11810;BME280;5962;41.566;23.734;2023-11-18T05:58:52;94434.16;;;8.46;100.00
11810;BME280;5962;41.566;23.734;2023-11-18T06:01:21;94444.44;;;8.43;100.00
11810;BME280;5962;41.566;23.734;2023-11-18T06:03:50;94444.09;;;8.39;100.00
11810;BME280;5962;41.566;23.734;2023-11-18T06:06:18;94447.78;;;8.38;100.00
11810;BME280;5962;41.566;23.734;2023-11-18T06:08:49;94446.16;;;8.32;100.00
11810;BME280;5962;41.566;23.734;2023-11-18T06:11:17;94450.69;;;8.37;100.00
11810;BME280;5962;41.566;23.734;2023-11-18T06:13:46;94459.66;;;8.36;100.00
11810;BME280;5962;41.566;23.734;2023-11-18T06:16:15;94453.59;;;8.35;100.00
11810;BME280;5962;41.566;23.734;2023-11-18T06:18:44;94455.91;;;8.32;100.00
11810;BME280;5962;41.566;23.734;2023-11-18T06:21:15;94454.28;;;8.26;100.00
11810;BME280;5962;41.566;23.734;2023-11-18T06:23:43;94456.66;;;8.27;99.93
11810;BME280;5962;41.566;23.734;2023-11-18T06:26:12;94454.47;;;8.19;100.00
11810;BME280;5962;41.566;23.734;2023-11-18T06:28:41;94457.47;;;8.28;100.00
11810;BME280;5962;41.566;23.734;2023-11-18T06:31:10;94460.09;;;8.28;100.00
11810;BME280;5962;41.566;23.734;2023-11-18T06:33:39;94461.69;;;8.29;100.00
11810;BME280;5962;41.566;23.734;2023-11-18T06:36:09;94460.13;;;8.33;100.00
11810;BME280;5962;41.566;23.734;2023-11-18T06:38:40;94471.22;;;8.30;100.00
11810;BME280;5962;41.566;23.734;2023-11-18T06:41:08;94475.97;;;8.33;100.00
11810;BME280;5962;41.566;23.734;2023-11-18T06:43:39;94477.38;;;8.40;97.60
11810;BME280;5962;41.566;23.734;2023-11-18T06:46:19;94473.66;;;8.36;98.51
11810;BME280;5962;41.566;23.734;2023-11-18T06:48:48;94478.09;;;8.31;98.75
11810;BME280;5962;41.566;23.734;2023-11-18T06:51:17;94484.50;;;8.40;100.00
11810;BME280;5962;41.566;23.734;2023-11-18T06:53:46;94476.81;;;8.38;100.00
11810;BME280;5962;41.566;23.734;2023-11-18T06:56:14;94485.53;;;8.39;98.65
11810;BME280;5962;41.566;23.734;2023-11-18T06:58:42;94486.09;;;8.41;97.26
11810;BME280;5962;41.566;23.734;2023-11-18T07:01:12;94488.75;;;8.41;96.33
11810;BME280;5962;41.566;23.734;2023-11-18T07:03:41;94472.16;;;8.45;96.47
11810;BME280;5962;41.566;23.734;2023-11-18T07:06:09;94487.63;;;8.37;94.29
11810;BME280;5962;41.566;23.734;2023-11-18T07:08:37;94473.66;;;8.36;95.87
11810;BME280;5962;41.566;23.734;2023-11-18T07:11:07;94465.97;;;8.35;95.41
11810;BME280;5962;41.566;23.734;2023-11-18T07:13:35;94468.06;;;8.33;96.84
11810;BME280;5962;41.566;23.734;2023-11-18T07:16:06;94457.81;;;8.36;94.21
11810;BME280;5962;41.566;23.734;2023-11-18T07:18:35;94455.91;;;8.32;93.28
11810;BME280;5962;41.566;23.734;2023-11-18T07:21:04;94447.66;;;8.23;93.87
11810;BME280;5962;41.566;23.734;2023-11-18T07:23:32;94444.56;;;8.10;95.69
11810;BME280;5962;41.566;23.734;2023-11-18T07:26:01;94459.63;;;8.14;91.80
11810;BME280;5962;41.566;23.734;2023-11-18T07:28:31;94460.38;;;8.10;92.97
11810;BME280;5962;41.566;23.734;2023-11-18T07:30:59;94473.50;;;8.05;92.64
11810;BME280;5962;41.566;23.734;2023-11-18T07:33:32;94476.13;;;8.05;91.34
11810;BME280;5962;41.566;23.734;2023-11-18T07:36:00;94463.38;;;7.97;90.63
11810;BME280;5962;41.566;23.734;2023-11-18T07:38:29;94471.56;;;7.95;92.95
11810;BME280;5962;41.566;23.734;2023-11-18T07:40:59;94480.88;;;8.03;89.25
11810;BME280;5962;41.566;23.734;2023-11-18T07:43:29;94478.72;;;8.00;91.19
11810;BME280;5962;41.566;23.734;2023-11-18T07:45:58;94467.44;;;8.04;89.45
11810;BME280;5962;41.566;23.734;2023-11-18T07:48:26;94465.34;;;8.06;90.44
11810;BME280;5962;41.566;23.734;2023-11-18T07:50:54;94471.19;;;8.08;88.25
11810;BME280;5962;41.566;23.734;2023-11-18T07:53:23;94471.75;;;8.10;87.17
11810;BME280;5962;41.566;23.734;2023-11-18T07:55:52;94467.09;;;8.17;88.72
11810;BME280;5962;41.566;23.734;2023-11-18T07:58:20;94465.25;;;8.18;87.06
11810;BME280;5962;41.566;23.734;2023-11-18T08:00:49;94459.19;;;8.17;86.91
11810;BME280;5962;41.566;23.734;2023-11-18T08:03:19;94444.41;;;8.16;86.75
11810;BME280;5962;41.566;23.734;2023-11-18T08:05:47;94450.03;;;8.25;82.64
11810;BME280;5962;41.566;23.734;2023-11-18T08:08:15;94457.16;;;8.24;79.05
11810;BME280;5962;41.566;23.734;2023-11-18T08:10:44;94447.97;;;8.32;77.92
11810;BME280;5962;41.566;23.734;2023-11-18T08:13:12;94451.72;;;8.36;75.56
11810;BME280;5962;41.566;23.734;2023-11-18T08:15:41;94448.81;;;8.32;73.95
11810;BME280;5962;41.566;23.734;2023-11-18T08:18:12;94461.19;;;8.32;78.69
11810;BME280;5962;41.566;23.734;2023-11-18T08:20:42;94455.00;;;8.43;78.08
11810;BME280;5962;41.566;23.734;2023-11-18T08:23:10;94459.75;;;8.45;75.29
11810;BME280;5962;41.566;23.734;2023-11-18T08:25:39;94460.00;;;8.44;75.44
11810;BME280;5962;41.566;23.734;2023-11-18T08:28:08;94463.50;;;8.49;75.54
11810;BME280;5962;41.566;23.734;2023-11-18T08:30:37;94462.50;;;8.55;76.70
11810;BME280;5962;41.566;23.734;2023-11-18T08:33:05;94457.81;;;8.62;75.88
11810;BME280;5962;41.566;23.734;2023-11-18T08:35:35;94454.41;;;8.67;76.89
11810;BME280;5962;41.566;23.734;2023-11-18T08:38:05;94456.41;;;8.81;74.90
11810;BME280;5962;41.566;23.734;2023-11-18T08:40:34;94441.91;;;8.84;73.90
11810;BME280;5962;41.566;23.734;2023-11-18T08:43:02;94442.41;;;8.81;74.75
11810;BME280;5962;41.566;23.734;2023-11-18T08:45:34;94433.72;;;8.85;72.76
11810;BME280;5962;41.566;23.734;2023-11-18T08:48:04;94456.56;;;8.96;70.48
11810;BME280;5962;41.566;23.734;2023-11-18T08:50:35;94439.63;;;8.92;68.75
11810;BME280;5962;41.566;23.734;2023-11-18T08:53:07;94444.41;;;9.00;67.71
11810;BME280;5962;41.566;23.734;2023-11-18T08:55:36;94448.72;;;9.06;65.82
11810;BME280;5962;41.566;23.734;2023-11-18T08:58:09;94441.06;;;9.10;59.43
11810;BME280;5962;41.566;23.734;2023-11-18T09:00:46;94442.72;;;9.16;58.37
11810;BME280;5962;41.566;23.734;2023-11-18T09:03:22;94417.06;;;9.16;55.30
11810;BME280;5962;41.566;23.734;2023-11-18T09:05:55;94424.53;;;9.24;54.83
11810;BME280;5962;41.566;23.734;2023-11-18T09:08:33;94408.97;;;9.28;54.56
11810;BME280;5962;41.566;23.734;2023-11-18T09:11:03;94416.72;;;9.44;53.50
11810;BME280;5962;41.566;23.734;2023-11-18T09:13:33;94403.28;;;9.50;52.38
11810;BME280;5962;41.566;23.734;2023-11-18T09:16:03;94401.22;;;9.57;50.73
11810;BME280;5962;41.566;23.734;2023-11-18T09:18:35;94389.81;;;9.52;50.33
11810;BME280;5962;41.566;23.734;2023-11-18T09:21:05;94385.38;;;9.62;51.13
11810;BME280;5962;41.566;23.734;2023-11-18T09:23:35;94389.88;;;9.62;52.24
11810;BME280;5962;41.566;23.734;2023-11-18T09:26:04;94376.16;;;9.65;51.84
11810;BME280;5962;41.566;23.734;2023-11-18T09:28:34;94374.00;;;9.62;53.50
11810;BME280;5962;41.566;23.734;2023-11-18T09:31:03;94381.53;;;9.90;46.91
11810;BME280;5962;41.566;23.734;2023-11-18T09:33:33;94376.09;;;10.11;46.16
11810;BME280;5962;41.566;23.734;2023-11-18T09:36:03;94370.25;;;10.14;46.82
11810;BME280;5962;41.566;23.734;2023-11-18T09:38:36;94368.72;;;10.23;42.37
11810;BME280;5962;41.566;23.734;2023-11-18T09:41:08;94392.03;;;10.41;41.98
11810;BME280;5962;41.566;23.734;2023-11-18T09:43:38;94342.00;;;10.30;41.44
11810;BME280;5962;41.566;23.734;2023-11-18T09:46:13;94360.78;;;10.43;41.34
11810;BME280;5962;41.566;23.734;2023-11-18T09:48:43;94346.22;;;10.40;40.40
11810;BME280;5962;41.566;23.734;2023-11-18T09:51:17;94374.03;;;10.53;41.50
11810;BME280;5962;41.566;23.734;2023-11-18T09:53:51;94375.63;;;10.44;40.57
11810;BME280;5962;41.566;23.734;2023-11-18T09:56:26;94372.19;;;10.48;39.06
11810;BME280;5962;41.566;23.734;2023-11-18T09:59:11;94358.69;;;10.45;38.29
11810;BME280;5962;41.566;23.734;2023-11-18T10:01:43;94346.50;;;10.44;37.88
11810;BME280;5962;41.566;23.734;2023-11-18T10:04:13;94350.16;;;10.28;38.07
11810;BME280;5962;41.566;23.734;2023-11-18T10:06:46;94360.53;;;10.44;38.72
11810;BME280;5962;41.566;23.734;2023-11-18T10:09:16;94377.22;;;10.45;37.24
11810;BME280;5962;41.566;23.734;2023-11-18T10:11:47;94355.25;;;10.44;38.64
11810;BME280;5962;41.566;23.734;2023-11-18T10:14:15;94382.00;;;10.48;37.56
11810;BME280;5962;41.566;23.734;2023-11-18T10:16:44;94380.41;;;10.57;39.01
11810;BME280;5962;41.566;23.734;2023-11-18T10:19:14;94352.06;;;10.47;37.59
11810;BME280;5962;41.566;23.734;2023-11-18T10:21:44;94345.72;;;10.43;37.38
11810;BME280;5962;41.566;23.734;2023-11-18T10:24:16;94371.91;;;10.40;37.05
11810;BME280;5962;41.566;23.734;2023-11-18T10:26:55;94375.84;;;10.32;36.63
11810;BME280;5962;41.566;23.734;2023-11-18T10:29:24;94381.16;;;10.28;36.81
11810;BME280;5962;41.566;23.734;2023-11-18T10:32:04;94335.63;;;10.31;37.42
11810;BME280;5962;41.566;23.734;2023-11-18T10:34:35;94339.88;;;10.36;37.09
11810;BME280;5962;41.566;23.734;2023-11-18T10:37:03;94374.28;;;10.36;35.79
11810;BME280;5962;41.566;23.734;2023-11-18T10:39:34;94339.59;;;10.33;36.18
11810;BME280;5962;41.566;23.734;2023-11-18T10:42:03;94405.50;;;10.30;36.08
11810;BME280;5962;41.566;23.734;2023-11-18T10:44:31;94358.66;;;10.30;36.68
11810;BME280;5962;41.566;23.734;2023-11-18T10:46:59;94345.69;;;10.29;36.24
11810;BME280;5962;41.566;23.734;2023-11-18T10:49:28;94376.13;;;10.31;36.32
11810;BME280;5962;41.566;23.734;2023-11-18T10:52:04;94385.38;;;10.33;36.03
11810;BME280;5962;41.566;23.734;2023-11-18T10:54:36;94389.34;;;10.21;35.90
11810;BME280;5962;41.566;23.734;2023-11-18T10:57:05;94356.72;;;10.06;35.59
11810;BME280;5962;41.566;23.734;2023-11-18T10:59:35;94331.63;;;10.13;36.64
11810;BME280;5962;41.566;23.734;2023-11-18T11:02:18;94323.41;;;10.20;36.53
11810;BME280;5962;41.566;23.734;2023-11-18T11:04:48;94383.00;;;10.22;36.28
11810;BME280;5962;41.566;23.734;2023-11-18T11:07:17;94359.16;;;10.17;36.39
11810;BME280;5962;41.566;23.734;2023-11-18T11:09:48;94353.34;;;10.20;36.95
11810;BME280;5962;41.566;23.734;2023-11-18T11:12:23;94312.59;;;10.21;36.73
11810;BME280;5962;41.566;23.734;2023-11-18T11:14:59;94342.25;;;10.23;36.79
11810;BME280;5962;41.566;23.734;2023-11-18T11:17:31;94336.66;;;10.15;36.40
11810;BME280;5962;41.566;23.734;2023-11-18T11:20:05;94319.19;;;10.04;37.18
11810;BME280;5962;41.566;23.734;2023-11-18T11:22:56;94393.53;;;10.07;36.68
11810;BME280;5962;41.566;23.734;2023-11-18T11:25:41;94371.75;;;9.90;36.98
11810;BME280;5962;41.566;23.734;2023-11-18T11:28:16;94381.47;;;9.80;36.97
11810;BME280;5962;41.566;23.734;2023-11-18T11:30:53;94344.19;;;9.71;37.04
11810;BME280;5962;41.566;23.734;2023-11-18T11:33:26;94335.47;;;9.76;37.74
11810;BME280;5962;41.566;23.734;2023-11-18T11:36:00;94333.13;;;9.84;37.87
11810;BME280;5962;41.566;23.734;2023-11-18T11:38:32;94375.97;;;9.91;37.20
11810;BME280;5962;41.566;23.734;2023-11-18T11:41:01;94400.56;;;9.87;36.49
11810;BME280;5962;41.566;23.734;2023-11-18T11:43:32;94349.25;;;9.88;37.69
11810;BME280;5962;41.566;23.734;2023-11-18T11:46:02;94354.53;;;9.88;36.12
11810;BME280;5962;41.566;23.734;2023-11-18T11:48:37;94342.41;;;9.92;36.15
11810;BME280;5962;41.566;23.734;2023-11-18T11:51:18;94346.38;;;9.94;36.21
11810;BME280;5962;41.566;23.734;2023-11-18T11:53:52;94343.19;;;9.92;37.24
11810;BME280;5962;41.566;23.734;2023-11-18T11:59:17;94367.25;;;9.91;36.59
11810;BME280;5962;41.566;23.734;2023-11-18T12:01:48;94361.66;;;9.87;36.81
11810;BME280;5962;41.566;23.734;2023-11-18T12:04:19;94344.13;;;9.56;36.26
11810;BME280;5962;41.566;23.734;2023-11-18T12:06:55;94350.50;;;9.65;36.73
11810;BME280;5962;41.566;23.734;2023-11-18T12:09:30;94359.72;;;9.58;37.12
11810;BME280;5962;41.566;23.734;2023-11-18T12:12:01;94375.03;;;9.56;37.94
11810;BME280;5962;41.566;23.734;2023-11-18T12:14:32;94369.97;;;9.44;37.79
11810;BME280;5962;41.566;23.734;2023-11-18T12:17:17;94379.19;;;9.37;37.24
11810;BME280;5962;41.566;23.734;2023-11-18T12:19:49;94373.34;;;9.40;37.72
11810;BME280;5962;41.566;23.734;2023-11-18T12:22:18;94392.94;;;9.44;38.07
11810;BME280;5962;41.566;23.734;2023-11-18T12:25:28;94377.84;;;9.39;37.42
11810;BME280;5962;41.566;23.734;2023-11-18T12:27:57;94411.16;;;9.40;38.50
11810;BME280;5962;41.566;23.734;2023-11-18T12:30:39;94452.41;;;9.41;36.99
11810;BME280;5962;41.566;23.734;2023-11-18T12:33:19;94381.28;;;9.40;37.36
11810;BME280;5962;41.566;23.734;2023-11-18T12:45:59;94406.75;;;9.51;36.66
11810;BME280;5962;41.566;23.734;2023-11-18T12:48:34;94414.44;;;9.57;36.68
11810;BME280;5962;41.566;23.734;2023-11-18T12:51:06;94404.97;;;9.66;36.14
11810;BME280;5962;41.566;23.734;2023-11-18T12:53:38;94443.88;;;9.76;36.67
11810;BME280;5962;41.566;23.734;2023-11-18T12:56:06;94435.38;;;9.69;37.42
11810;BME280;5962;41.566;23.734;2023-11-18T12:58:35;94443.59;;;9.72;36.75
11810;BME280;5962;41.566;23.734;2023-11-18T13:01:05;94431.72;;;9.75;37.34
11810;BME280;5962;41.566;23.734;2023-11-18T13:03:33;94437.78;;;9.70;37.00
11810;BME280;5962;41.566;23.734;2023-11-18T13:06:04;94464.69;;;9.62;37.60
11810;BME280;5962;41.566;23.734;2023-11-18T13:08:33;94452.78;;;9.60;37.72
11810;BME280;5962;41.566;23.734;2023-11-18T13:11:01;94471.03;;;9.61;38.45
11810;BME280;5962;41.566;23.734;2023-11-18T13:13:33;94477.84;;;9.52;37.70
11810;BME280;5962;41.566;23.734;2023-11-18T13:16:01;94464.84;;;9.46;38.23
11810;BME280;5962;41.566;23.734;2023-11-18T13:18:41;94497.56;;;9.40;38.97
11810;BME280;5962;41.566;23.734;2023-11-18T13:21:13;94470.78;;;9.27;38.27
11810;BME280;5962;41.566;23.734;2023-11-18T13:23:45;94469.38;;;9.14;38.73
11810;BME280;5962;41.566;23.734;2023-11-18T13:26:14;94460.38;;;9.10;40.40
11810;BME280;5962;41.566;23.734;2023-11-18T13:28:42;94474.84;;;9.08;40.08
11810;BME280;5962;41.566;23.734;2023-11-18T13:31:11;94504.03;;;9.18;39.07